Airfield :
LOGIN :

Register | Disclaimer

   EN    FR    IT 

 










Legend :    VFR   Marginal VFR   IFR   Intensive IFR   Very Intensive IFR
Visi :
Ceiling :
>= 8 km
>= 3000ft
5 to 8 km
1000 to 3000 ft
1500m to 5 km
500 to 1000 ft
800 to 1500m
200 to 500 ft
< 800m
< 200 ft
Symbols :   Thunderstorms  Fog  Heavy snow  Heavy precipitations  Wind > 20 kt
SIGMETs :     Misc.  Thunderstorms  Icing  Turbulence  Mountain Waves  Volcanic Ashes







- Airport Elevation : 465 ft
- IATA code : LEJ


EDDP - Leipzig Halle

CURRENT METAR :
  • 191350Z VRB02KT CAVOK 13/06 Q1024 NOSIG

EXPIRED METARs :
  • 191320Z VRB02KT CAVOK 13/06 Q1025 NOSIG
  • 191250Z VRB02KT CAVOK 13/06 Q1025 NOSIG
  • 191220Z VRB02KT CAVOK 12/07 Q1025 NOSIG
  • 191150Z 34003KT 310V030 9999 FEW016 12/07 Q1025 NOSIG
  • 191120Z 33003KT 270V010 CAVOK 11/07 Q1025 NOSIG

TAF TAF EDDP
Valid from the 19 at 12:00 until the 20 at 12:00 UTC


191100Z 1912/2012 36004KT CAVOK
BECMG 2006/2008 30005KT
No reported NOTAMs for that airfield.



MET'MAP, your aeronautical weather chart ! - Copyright ORBIFLY December 2007 - Disclaimer

ORBIFLY MET'MAP TEAM :

Programming & Development : Alexandra Zaïnal
Concept & Development : Baudouin d'Aumeries
Co-Development & Prog : Marc-Olivier Méhu
Technical & hardware support : Manuel Goepfert

Contact : metmap@orbifly.com




SOURCES & CREDITS :

   NOAA